Time;durP1;ratioP1;P1;durP2;ratioP2;P2;SDS_P1;SDS_P2;PMS_P1;PMS_P2;Temp;Humidity;BMP_temperature;BMP_pressure;BME280_temperature;BME280_humidity;BME280_pressure;Samples;Min_cycle;Max_cycle;Signal;HPM_P1;HPM_P2
2022/03/23 00:01:41;;;;;;;45.70;28.85;;;7.00;99.90;;;;;;5055028;28;20052;-75
2022/03/23 00:04:07;;;;;;;;;;;7.00;99.90;;;;;;5072440;28;20070;-75
2022/03/23 00:06:33;;;;;;;43.53;27.17;;;6.90;99.90;;;;;;5073231;28;20061;-75
2022/03/23 00:09:00;;;;;;;49.30;28.13;;;6.90;99.90;;;;;;5055026;28;20047;-75
2022/03/23 00:11:26;;;;;;;44.20;27.98;;;6.90;99.90;;;;;;5071971;28;20048;-75
2022/03/23 00:13:51;;;;;;;;;;;6.90;99.90;;;;;;5072783;28;20048;-74
2022/03/23 00:16:17;;;;;;;46.05;26.95;;;6.90;99.90;;;;;;5054586;28;20440;-75
2022/03/23 00:18:42;;;;;;;;;;;6.80;99.90;;;;;;5072038;28;20407;-74
2022/03/23 00:21:08;;;;;;;41.10;25.83;;;6.80;99.90;;;;;;5054726;28;19920;-74
2022/03/23 00:23:33;;;;;;;;;;;6.70;99.90;;;;;;5054360;28;20118;-74
2022/03/23 00:25:59;;;;;;;41.10;26.02;;;6.80;99.90;;;;;;5054816;28;19920;-74
2022/03/23 00:28:26;;;;;;;40.80;24.42;;;6.80;99.90;;;;;;5054108;28;20088;-74
2022/03/23 00:31:00;;;;;;;36.58;24.35;;;6.80;99.90;;;;;;5050529;28;20036;-74
2022/03/23 00:33:26;;;;;;;38.88;25.10;;;6.70;99.90;;;;;;5052243;28;20048;-74
2022/03/23 00:35:53;;;;;;;;;;;6.70;99.90;;;;;;5067471;28;20059;-74
2022/03/23 00:38:19;;;;;;;36.88;22.77;;;6.70;99.90;;;;;;5053490;28;19920;-74
2022/03/23 00:40:45;;;;;;;;;;;6.70;99.90;;;;;;5072763;28;20430;-75
2022/03/23 00:43:11;;;;;;;39.45;23.17;;;6.70;99.90;;;;;;5054023;28;19920;-75
2022/03/23 00:45:37;;;;;;;;;;;6.70;99.90;;;;;;5053606;28;20052;-75
2022/03/23 00:48:04;;;;;;;39.37;21.77;;;6.70;99.90;;;;;;5054234;28;19967;-74
2022/03/23 00:50:30;;;;;;;33.50;20.90;;;6.70;99.90;;;;;;5072448;28;20041;-74
2022/03/23 00:52:55;;;;;;;;;;;6.60;99.90;;;;;;5054258;28;20051;-75
2022/03/23 00:55:21;;;;;;;34.13;21.92;;;6.60;99.90;;;;;;5071401;28;20307;-75
2022/03/23 00:57:47;;;;;;;35.88;23.10;;;6.60;99.90;;;;;;5054269;28;20054;-75
2022/03/23 01:00:17;;;;;;;;;;;6.60;99.90;;;;;;5072127;28;20045;-74
2022/03/23 01:02:44;;;;;;;36.25;22.95;;;6.60;99.90;;;;;;5054352;28;19931;-74
2022/03/23 01:05:11;;;;;;;35.53;22.73;;;6.60;99.90;;;;;;5071644;28;20044;-75
2022/03/23 01:07:38;;;;;;;37.25;23.27;;;6.60;99.90;;;;;;5054067;28;20429;-75
2022/03/23 01:10:05;;;;;;;37.33;22.05;;;6.50;99.90;;;;;;5072038;28;20053;-75
2022/03/23 01:12:31;;;;;;;40.75;24.30;;;6.50;99.90;;;;;;5054627;28;20548;-75
2022/03/23 01:14:56;;;;;;;;;;;6.50;99.90;;;;;;5054448;28;20127;-75
2022/03/23 01:17:22;;;;;;;35.90;23.15;;;6.60;99.90;;;;;;5072094;28;19927;-74
2022/03/23 01:19:47;;;;;;;41.97;23.95;;;6.50;99.90;;;;;;5071207;28;20487;-75
2022/03/23 01:22:13;;;;;;;;;;;6.50;99.90;;;;;;5072209;28;20136;-75
2022/03/23 01:24:38;;;;;;;37.78;23.60;;;6.50;99.90;;;;;;5054155;28;20291;-75
2022/03/23 01:27:04;;;;;;;;;;;6.50;99.90;;;;;;5054086;28;20047;-75
2022/03/23 01:29:30;;;;;;;43.83;26.08;;;6.40;99.90;;;;;;5072102;28;19920;-75
2022/03/23 01:31:55;;;;;;;;;;;6.40;99.90;;;;;;5072354;28;20127;-75
2022/03/23 01:34:21;;;;;;;45.55;26.50;;;6.40;99.90;;;;;;5053448;28;19920;-75
2022/03/23 01:36:47;;;;;;;;;;;6.30;99.90;;;;;;5051131;28;20049;-75
2022/03/23 01:39:13;;;;;;;43.20;25.52;;;6.40;99.90;;;;;;5051458;28;19932;-75
2022/03/23 01:41:40;;;;;;;45.05;26.80;;;6.30;99.90;;;;;;5051370;28;20499;-75
2022/03/23 01:44:20;;;;;;;47.65;28.25;;;6.30;99.90;;;;;;5051716;28;20071;-75
2022/03/23 01:47:11;;;;;;;49.50;28.90;;;6.30;99.90;;;;;;5051868;28;20519;-75
2022/03/23 01:49:45;;;;;;;51.50;29.17;;;6.30;99.90;;;;;;5054099;28;20049;-75
2022/03/23 01:52:15;;;;;;;47.30;29.77;;;6.30;99.90;;;;;;5071524;28;20045;-75
2022/03/23 01:54:41;;;;;;;49.22;29.65;;;6.30;99.90;;;;;;5054018;28;20600;-75
2022/03/23 01:57:09;;;;;;;50.63;31.05;;;6.20;99.90;;;;;;5053271;28;20049;-75
2022/03/23 01:59:37;;;;;;;57.83;32.50;;;6.20;99.90;;;;;;5053351;28;20040;-75
2022/03/23 02:02:03;;;;;;;53.92;32.08;;;6.20;99.90;;;;;;5056719;28;20059;-75
2022/03/23 02:04:29;;;;;;;53.58;31.65;;;6.20;99.90;;;;;;5075284;28;20075;-75
2022/03/23 02:06:54;;;;;;;;;;;6.20;99.90;;;;;;5056207;28;20076;-75
2022/03/23 02:09:20;;;;;;;50.80;31.42;;;6.20;99.90;;;;;;5074519;28;20360;-75
2022/03/23 02:11:46;;;;;;;;;;;6.20;99.90;;;;;;5075660;28;20044;-75
2022/03/23 02:14:13;;;;;;;53.05;32.35;;;6.20;99.90;;;;;;5057102;28;19920;-75
2022/03/23 02:16:45;;;;;;;52.95;31.88;;;6.10;99.90;;;;;;5074304;28;20044;-75
2022/03/23 02:19:12;;;;;;;58.33;33.75;;;6.10;99.90;;;;;;5074494;28;20513;-75
2022/03/23 02:21:42;;;;;;;57.33;33.45;;;6.10;99.90;;;;;;5049697;28;20045;-75
2022/03/23 02:24:09;;;;;;;57.15;33.70;;;6.10;99.90;;;;;;5069692;28;20484;-75
2022/03/23 02:26:34;;;;;;;53.40;33.17;;;6.10;99.90;;;;;;5045961;28;20049;-75
2022/03/23 02:29:00;;;;;;;;;;;6.00;99.90;;;;;;5042958;28;20037;-75
2022/03/23 02:31:26;;;;;;;58.97;33.63;;;6.00;99.90;;;;;;5087794;28;19927;-75
2022/03/23 02:33:52;;;;;;;;;;;6.00;99.90;;;;;;5049125;28;20045;-75
2022/03/23 02:36:18;;;;;;;57.00;32.80;;;6.00;99.90;;;;;;5067702;28;20298;-75
2022/03/23 02:38:43;;;;;;;;;;;5.90;99.90;;;;;;5079994;28;20048;-75
2022/03/23 02:41:09;;;;;;;53.88;31.55;;;5.90;99.90;;;;;;5089977;28;20007;-75
2022/03/23 02:43:35;;;;;;;;;;;5.90;99.90;;;;;;5048666;28;20033;-75
2022/03/23 02:46:02;;;;;;;46.67;29.67;;;5.90;99.90;;;;;;5077813;28;20375;-76
2022/03/23 02:48:28;;;;;;;54.42;32.80;;;5.90;99.90;;;;;;5094596;28;20072;-75
2022/03/23 02:50:54;;;;;;;56.25;33.22;;;5.80;99.90;;;;;;5062121;28;20052;-75
2022/03/23 03:02:12;;;;;;;56.72;33.47;;;5.70;99.90;;;;;;5058426;28;20087;-75
2022/03/23 03:04:38;;;;;;;57.42;34.55;;;5.70;99.90;;;;;;5058823;28;20044;-75
2022/03/23 03:07:03;;;;;;;;;;;5.70;99.90;;;;;;5055516;28;20045;-75
2022/03/23 03:09:29;;;;;;;54.67;32.50;;;5.70;99.90;;;;;;5056191;28;19974;-75
2022/03/23 03:11:54;;;;;;;;;;;5.70;99.90;;;;;;5073785;28;20094;-75
2022/03/23 03:14:20;;;;;;;53.63;33.28;;;5.70;99.90;;;;;;5072879;28;19927;-75
2022/03/23 03:16:45;;;;;;;;;;;5.70;99.90;;;;;;5074345;28;20132;-75
2022/03/23 03:19:12;;;;;;;55.92;33.13;;;5.70;99.90;;;;;;5055286;28;20007;-75
2022/03/23 03:21:38;;;;;;;55.08;33.25;;;5.70;99.90;;;;;;5055545;28;20127;-75
2022/03/23 03:24:04;;;;;;;56.40;33.58;;;5.70;99.90;;;;;;5073278;28;20554;-75
2022/03/23 03:26:30;;;;;;;;;;;5.70;99.90;;;;;;5054900;28;20048;-75
2022/03/23 03:28:56;;;;;;;55.08;32.85;;;5.70;99.90;;;;;;5073365;28;19920;-75
2022/03/23 03:31:22;;;;;;;51.00;31.95;;;5.60;99.90;;;;;;5073272;28;20048;-75
2022/03/23 03:33:48;;;;;;;;;;;5.60;99.90;;;;;;5072984;28;20040;-75
2022/03/23 03:36:15;;;;;;;58.70;32.47;;;6.20;99.90;;;;;;5073316;28;19967;-75
2022/03/23 03:38:44;;;;;;;58.83;34.50;;;5.60;99.90;;;;;;5055310;28;20044;-76
2022/03/23 03:41:10;;;;;;;;;;;5.60;99.90;;;;;;5072972;28;20495;-75
2022/03/23 03:43:36;;;;;;;64.32;35.22;;;5.60;99.90;;;;;;5051624;28;19928;-76
2022/03/23 03:46:02;;;;;;;;;;;5.60;99.90;;;;;;5053407;28;20443;-76
2022/03/23 03:48:28;;;;;;;59.65;34.75;;;5.60;99.90;;;;;;5052142;28;19971;-75
2022/03/23 03:50:54;;;;;;;62.40;35.85;;;5.60;99.90;;;;;;5053257;28;20051;-75
2022/03/23 03:53:20;;;;;;;;;;;5.60;99.90;;;;;;5052857;28;20036;-75
2022/03/23 03:55:46;;;;;;;56.65;34.55;;;5.60;99.90;;;;;;5055852;28;19966;-75
2022/03/23 03:58:12;;;;;;;59.92;34.65;;;5.80;99.90;;;;;;5052155;28;20069;-74
2022/03/23 04:00:39;;;;;;;64.13;35.33;;;5.60;99.90;;;;;;5078841;28;20055;-76
2022/03/23 04:03:05;;;;;;;59.33;34.58;;;5.50;99.90;;;;;;5063437;28;20082;-75
2022/03/23 04:05:33;;;;;;;57.22;33.50;;;5.60;99.90;;;;;;5039990;28;20396;-76
2022/03/23 04:07:59;;;;;;;57.85;33.80;;;5.60;99.90;;;;;;5071549;28;20043;-76
2022/03/23 04:10:25;;;;;;;;;;;5.50;99.90;;;;;;5072325;28;20115;-76
2022/03/23 04:12:54;;;;;;;54.75;32.80;;;5.50;99.90;;;;;;5072552;28;19917;-76
2022/03/23 04:15:21;;;;;;;56.80;34.30;;;5.50;99.90;;;;;;5054290;28;20124;-76
2022/03/23 04:17:47;;;;;;;54.08;32.83;;;5.50;99.90;;;;;;5072197;28;20036;-76
2022/03/23 04:20:13;;;;;;;54.72;33.00;;;5.40;99.90;;;;;;5072233;28;20045;-77
2022/03/23 04:22:39;;;;;;;;;;;5.40;99.90;;;;;;5053874;28;20055;-75
2022/03/23 04:25:13;;;;;;;53.67;30.80;;;5.40;99.90;;;;;;5072376;28;19928;-76
2022/03/23 04:27:47;;;;;;;52.30;31.20;;;5.40;99.90;;;;;;5072332;28;20051;-75
2022/03/23 04:30:14;;;;;;;56.55;33.40;;;5.30;99.90;;;;;;5072209;28;20052;-78
2022/03/23 04:32:40;;;;;;;56.22;33.17;;;5.30;99.90;;;;;;5070598;28;20037;-78
2022/03/23 04:35:06;;;;;;;;;;;5.30;99.90;;;;;;5070739;28;20044;-78
2022/03/23 04:37:32;;;;;;;58.70;33.58;;;5.30;99.90;;;;;;5069692;28;19951;-78
2022/03/23 04:39:57;;;;;;;;;;;5.30;99.90;;;;;;5053157;28;20048;-78
2022/03/23 04:42:23;;;;;;;56.53;31.92;;;5.30;99.90;;;;;;5050801;28;19979;-78
2022/03/23 04:44:48;;;;;;;;;;;5.30;99.90;;;;;;5070400;28;20051;-78
2022/03/23 04:47:14;;;;;;;53.67;33.00;;;5.30;99.90;;;;;;5051699;28;20576;-78
2022/03/23 04:49:40;;;;;;;51.70;31.90;;;5.30;99.90;;;;;;5053853;28;20070;-78
2022/03/23 04:52:06;;;;;;;;;;;5.30;99.90;;;;;;5071489;28;20056;-78
2022/03/23 04:54:31;;;;;;;54.58;31.55;;;5.30;99.90;;;;;;5070244;28;19921;-78
2022/03/23 04:56:57;;;;;;;;;;;5.30;99.90;;;;;;5070790;28;20085;-77
2022/03/23 04:59:23;;;;;;;53.40;30.63;;;5.20;99.90;;;;;;5069635;28;20310;-78
2022/03/23 05:01:49;;;;;;;;;;;5.20;99.90;;;;;;5070024;28;20428;-79
2022/03/23 05:04:14;;;;;;;46.85;30.52;;;5.30;99.90;;;;;;5069467;28;20043;-78
2022/03/23 05:06:40;;;;;;;;;;;5.20;99.90;;;;;;5052501;28;20154;-78
2022/03/23 05:09:05;;;;;;;49.90;30.60;;;5.20;99.90;;;;;;5070991;28;19966;-78
2022/03/23 05:11:31;;;;;;;;;;;5.20;99.90;;;;;;5053937;28;20075;-77
2022/03/23 05:13:56;;;;;;;50.65;30.08;;;5.20;99.90;;;;;;5053723;28;19974;-76
2022/03/23 05:16:22;;;;;;;53.97;31.60;;;5.20;99.90;;;;;;5071608;28;20040;-76
2022/03/23 05:18:47;;;;;;;49.00;29.60;;;5.20;99.90;;;;;;5071893;28;20102;-76
2022/03/23 05:21:13;;;;;;;49.95;28.25;;;5.20;99.90;;;;;;5071210;28;20049;-77
2022/03/23 05:23:40;;;;;;;;;;;5.20;99.90;;;;;;5072012;28;20123;-78
2022/03/23 05:26:05;;;;;;;46.40;28.50;;;5.20;99.90;;;;;;5051939;28;19921;-77
2022/03/23 05:28:31;;;;;;;;;;;5.10;99.90;;;;;;5072456;28;20290;-77
2022/03/23 05:30:56;;;;;;;44.33;27.20;;;5.10;99.90;;;;;;5071895;28;19981;-77
2022/03/23 05:33:22;;;;;;;47.45;29.65;;;5.10;99.90;;;;;;5052863;28;20036;-78
2022/03/23 05:35:47;;;;;;;;;;;5.10;99.90;;;;;;5055740;28;20044;-78
2022/03/23 05:38:13;;;;;;;48.90;28.25;;;5.10;99.90;;;;;;5075032;28;20001;-76
2022/03/23 05:40:40;;;;;;;45.88;28.75;;;5.10;99.90;;;;;;5075076;28;20040;-77
2022/03/23 05:43:06;;;;;;;48.97;29.80;;;5.10;99.90;;;;;;5073539;28;20384;-76
2022/03/23 05:45:31;;;;;;;;;;;5.10;99.90;;;;;;5071801;28;20043;-74
2022/03/23 05:47:57;;;;;;;45.67;28.33;;;6.10;99.90;;;;;;5071172;28;20050;-76
2022/03/23 05:50:22;;;;;;;;;;;5.10;99.90;;;;;;5075105;28;20108;-77
2022/03/23 05:52:48;;;;;;;45.92;28.80;;;5.10;99.90;;;;;;5074475;28;20419;-75
2022/03/23 05:55:13;;;;;;;;;;;5.10;99.90;;;;;;5071904;28;20507;-74
2022/03/23 05:57:39;;;;;;;46.33;27.55;;;5.10;99.90;;;;;;5073773;28;19927;-73
2022/03/23 06:00:08;;;;;;;;;;;5.10;99.90;;;;;;5055012;28;20052;-75
2022/03/23 06:02:34;;;;;;;51.65;31.38;;;5.10;99.90;;;;;;5072940;28;20429;-73
2022/03/23 06:05:00;;;;;;;;;;;5.10;99.90;;;;;;5075451;28;20044;-72
2022/03/23 06:07:26;;;;;;;48.78;29.50;;;5.20;99.90;;;;;;5074399;28;19920;-74
2022/03/23 06:09:51;;;;;;;;;;;5.20;99.90;;;;;;5074650;28;20041;-73
2022/03/23 06:12:17;;;;;;;45.22;27.88;;;5.30;99.90;;;;;;5074777;28;20013;-74
2022/03/23 06:14:43;;;;;;;48.97;29.58;;;5.30;99.90;;;;;;5073860;28;20051;-74
2022/03/23 06:17:10;;;;;;;42.38;28.23;;;5.30;99.90;;;;;;5074258;28;20056;-75
2022/03/23 06:19:36;;;;;;;45.85;27.15;;;5.30;99.90;;;;;;5052526;28;20087;-74
2022/03/23 06:22:02;;;;;;;;;;;5.40;99.90;;;;;;5074206;28;20056;-75
2022/03/23 06:24:28;;;;;;;46.67;28.63;;;5.40;99.90;;;;;;5052407;28;19921;-78
2022/03/23 06:26:53;;;;;;;;;;;5.50;99.90;;;;;;5055404;28;20094;-80
2022/03/23 06:29:19;;;;;;;46.78;28.48;;;5.50;99.90;;;;;;5055264;28;19928;-73
2022/03/23 06:31:44;;;;;;;;;;;5.60;99.90;;;;;;5057240;28;20048;-75
2022/03/23 06:34:10;;;;;;;45.65;28.02;;;5.70;99.90;;;;;;5055443;28;20249;-76
2022/03/23 06:36:36;;;;;;;;;;;5.70;99.90;;;;;;5056638;28;20123;-79
2022/03/23 06:39:03;;;;;;;45.85;27.65;;;5.80;99.90;;;;;;5074074;28;19947;-73
2022/03/23 06:41:29;;;;;;;47.63;29.00;;;5.90;99.90;;;;;;5074727;28;20044;-74
2022/03/23 06:43:54;;;;;;;;;;;5.90;99.90;;;;;;5052806;28;20068;-73
2022/03/23 06:46:20;;;;;;;44.95;28.27;;;6.00;99.90;;;;;;5051458;28;19927;-76
2022/03/23 06:48:51;;;;;;;;;;;6.10;99.90;;;;;;5074165;28;20399;-75
2022/03/23 06:51:23;;;;;;;47.20;29.08;;;6.10;99.90;;;;;;5055157;28;19920;-74
2022/03/23 06:53:48;;;;;;;;;;;6.20;99.90;;;;;;5074375;28;20048;-74
2022/03/23 06:56:14;;;;;;;46.15;29.08;;;6.40;99.90;;;;;;5051622;28;19920;-74
2022/03/23 06:58:40;;;;;;;;;;;6.40;99.90;;;;;;5066216;28;20045;-76
2022/03/23 07:01:05;;;;;;;48.60;28.88;;;6.60;99.90;;;;;;5073660;28;19923;-78
2022/03/23 07:03:31;;;;;;;;;;;6.60;99.90;;;;;;5074374;28;20383;-75
2022/03/23 07:05:57;;;;;;;47.75;27.55;;;6.70;99.90;;;;;;5055686;28;19920;-78
2022/03/23 07:11:07;;;;;;;50.88;30.67;;;6.90;99.90;;;;;;5073572;28;19955;-76
2022/03/23 07:13:32;;;;;;;;;;;7.10;99.90;;;;;;5073805;28;20067;-76
2022/03/23 07:15:58;;;;;;;51.08;31.23;;;7.20;99.90;;;;;;5073477;28;20049;-74
2022/03/23 07:18:24;;;;;;;;;;;7.30;99.90;;;;;;5052149;28;20107;-77
2022/03/23 07:20:52;;;;;;;48.67;31.38;;;7.40;99.90;;;;;;5052650;28;19974;-77
2022/03/23 07:23:18;;;;;;;50.42;30.90;;;7.80;99.90;;;;;;5070065;28;20088;-77
2022/03/23 07:25:43;;;;;;;;;;;7.60;99.90;;;;;;5055405;28;20423;-79
2022/03/23 07:28:12;;;;;;;50.53;32.40;;;7.70;99.90;;;;;;5055172;28;20283;-82
2022/03/23 07:30:40;;;;;;;55.47;33.45;;;7.90;99.90;;;;;;5073472;28;20490;-77
2022/03/23 07:33:05;;;;;;;57.45;33.85;;;8.00;99.90;;;;;;5053522;28;20072;-76
2022/03/23 07:35:31;;;;;;;;;;;8.10;99.90;;;;;;5055772;28;20080;-76
2022/03/23 07:37:57;;;;;;;57.42;35.03;;;9.20;99.90;;;;;;5073470;28;19920;-77
2022/03/23 07:40:22;;;;;;;;;;;8.40;99.90;;;;;;5073056;28;20036;-77
2022/03/23 07:42:48;;;;;;;62.05;37.17;;;8.70;99.90;;;;;;5055543;28;20383;-76
2022/03/23 07:45:14;;;;;;;;;;;9.60;99.90;;;;;;5073394;28;20040;-78
2022/03/23 07:47:40;;;;;;;59.60;38.47;;;10.70;99.90;;;;;;5071729;28;20011;-78
2022/03/23 07:50:05;;;;;;;;;;;11.80;99.90;;;;;;5072654;28;20044;-77
2022/03/23 07:52:31;;;;;;;60.50;37.90;;;12.90;99.90;;;;;;5073035;28;19928;-80
2022/03/23 07:54:57;;;;;;;;;;;13.90;99.90;;;;;;5054681;28;20051;-79
2022/03/23 07:57:22;;;;;;;52.47;35.53;;;14.60;99.90;;;;;;5071695;28;20015;-79
2022/03/23 07:59:48;;;;;;;;;;;15.40;99.90;;;;;;5072772;28;20086;-79
2022/03/23 08:02:14;;;;;;;53.50;34.65;;;15.90;99.90;;;;;;5071625;28;19924;-80
2022/03/23 08:04:40;;;;;;;49.67;33.90;;;16.50;99.90;;;;;;5072689;28;20044;-80
2022/03/23 08:07:07;;;;;;;53.03;34.17;;;17.00;99.90;;;;;;5054453;28;20040;-80
2022/03/23 08:09:33;;;;;;;46.15;33.53;;;17.40;99.90;;;;;;5072093;28;20408;-79
2022/03/23 08:11:59;;;;;;;46.08;32.90;;;17.70;99.90;;;;;;5072899;28;20036;-79
2022/03/23 08:14:25;;;;;;;44.25;32.15;;;18.20;99.90;;;;;;5072537;28;20048;-79
2022/03/23 08:16:52;;;;;;;42.58;31.10;;;18.50;99.90;;;;;;5054007;28;20135;-79
2022/03/23 08:19:22;;;;;;;41.95;31.58;;;18.70;99.90;;;;;;5054125;28;20044;-80
2022/03/23 08:21:49;;;;;;;39.80;30.63;;;19.20;99.90;;;;;;5071753;28;20056;-77
2022/03/23 08:24:14;;;;;;;41.25;30.17;;;19.50;99.90;;;;;;5072283;28;20549;-79
2022/03/23 08:26:40;;;;;;;38.78;30.35;;;20.00;99.90;;;;;;5072611;28;20044;-79
2022/03/23 08:29:06;;;;;;;39.47;29.30;;;20.40;98.80;;;;;;5071931;28;20040;-79
2022/03/23 08:31:31;;;;;;;40.55;30.50;;;20.60;98.20;;;;;;5072492;28;20445;-79
2022/03/23 08:33:57;;;;;;;38.65;30.05;;;21.00;97.50;;;;;;5072364;28;20049;-76
2022/03/23 08:36:23;;;;;;;35.95;29.27;;;21.00;97.30;;;;;;5071338;28;20102;-77
2022/03/23 08:38:48;;;;;;;37.78;29.65;;;21.50;97.20;;;;;;5054378;28;20051;-77
2022/03/23 08:41:14;;;;;;;38.13;30.33;;;21.40;96.20;;;;;;5054180;28;20140;-77
2022/03/23 08:43:41;;;;;;;37.63;30.45;;;21.70;95.20;;;;;;5053932;28;20040;-77
2022/03/23 08:46:07;;;;;;;39.92;31.23;;;21.90;95.70;;;;;;5071903;28;20049;-76
2022/03/23 08:48:36;;;;;;;35.58;29.13;;;22.10;94.30;;;;;;5053611;28;20123;-77
2022/03/23 08:51:02;;;;;;;36.80;29.83;;;22.40;94.40;;;;;;5071752;28;20052;-77
2022/03/23 08:53:28;;;;;;;38.28;30.52;;;22.60;93.90;;;;;;5071949;28;20048;-76
2022/03/23 08:55:53;;;;;;;38.58;29.38;;;22.60;92.70;;;;;;5072195;28;20048;-76
2022/03/23 08:58:19;;;;;;;37.55;30.42;;;22.80;92.30;;;;;;5053241;28;20036;-76
2022/03/23 09:00:45;;;;;;;34.90;28.70;;;22.60;91.90;;;;;;5072058;28;20040;-77
2022/03/23 09:03:10;;;;;;;35.20;29.83;;;22.90;92.00;;;;;;5072205;28;20490;-78
2022/03/23 09:05:36;;;;;;;34.58;28.35;;;23.10;91.60;;;;;;5053692;28;20048;-78
2022/03/23 09:08:02;;;;;;;40.65;28.75;;;23.70;90.90;;;;;;5054066;28;20036;-78
2022/03/23 09:10:28;;;;;;;35.58;28.52;;;24.00;89.30;;;;;;5056994;28;20097;-78
2022/03/23 09:12:53;;;;;;;35.50;27.13;;;24.10;86.20;;;;;;5057716;28;20048;-79
2022/03/23 09:15:19;;;;;;;32.72;26.38;;;24.40;83.10;;;;;;5057919;28;20037;-78
2022/03/23 09:17:46;;;;;;;32.05;25.95;;;24.50;82.20;;;;;;5058089;28;20040;-78
2022/03/23 09:20:13;;;;;;;31.38;26.55;;;24.50;77.90;;;;;;5057122;28;20044;-78
2022/03/23 09:22:40;;;;;;;30.13;25.35;;;24.40;77.10;;;;;;5075594;28;20373;-78
2022/03/23 09:25:12;;;;;;;33.42;25.27;;;25.00;78.30;;;;;;5056952;28;20044;-78
2022/03/23 09:27:43;;;;;;;30.05;23.70;;;24.80;75.30;;;;;;5057997;28;20060;-78
2022/03/23 09:30:11;;;;;;;32.35;23.48;;;25.20;70.00;;;;;;5075344;28;20094;-78
2022/03/23 09:32:38;;;;;;;27.00;22.42;;;24.90;71.60;;;;;;5075217;28;20120;-78
2022/03/23 09:35:05;;;;;;;27.63;21.98;;;25.20;69.30;;;;;;5075517;28;20036;-79
2022/03/23 09:37:49;;;;;;;27.17;21.95;;;25.80;67.40;;;;;;5075970;28;20037;-79
2022/03/23 09:40:28;;;;;;;28.45;22.30;;;26.10;66.80;;;;;;5057136;28;20036;-79
2022/03/23 09:42:58;;;;;;;29.23;24.10;;;26.90;61.20;;;;;;5056995;28;20064;-79
2022/03/23 09:48:04;;;;;;;26.75;23.02;;;27.50;61.80;;;;;;5074943;28;20637;-78
2022/03/23 09:50:32;;;;;;;28.65;23.25;;;26.60;60.40;;;;;;5057655;28;20480;-78
2022/03/23 09:52:59;;;;;;;29.48;21.65;;;27.00;59.30;;;;;;5075456;28;20047;-78
2022/03/23 09:55:25;;;;;;;28.13;22.02;;;27.00;57.70;;;;;;5074741;28;20041;-79
2022/03/23 09:57:54;;;;;;;26.00;21.77;;;26.70;57.70;;;;;;5057674;28;20052;-79
2022/03/23 10:00:20;;;;;;;26.98;21.88;;;27.30;56.00;;;;;;5056682;28;20400;-79
2022/03/23 10:02:58;;;;;;;28.85;22.70;;;27.80;57.40;;;;;;5075515;28;20037;-77
2022/03/23 10:05:52;;;;;;;27.45;22.80;;;27.40;55.40;;;;;;5056720;28;20130;-79
2022/03/23 10:08:36;;;;;;;28.65;22.77;;;27.60;56.90;;;;;;5056450;28;20044;-79
2022/03/23 10:11:39;;;;;;;26.45;21.25;;;27.80;57.30;;;;;;5057357;28;20052;-79
2022/03/23 10:14:46;;;;;;;26.90;22.05;;;27.70;54.70;;;;;;5056760;28;20048;-77
2022/03/23 10:18:03;;;;;;;27.75;20.80;;;27.80;52.70;;;;;;5074767;28;20056;-77
2022/03/23 10:20:28;;;;;;;28.10;21.03;;;27.60;52.30;;;;;;5040081;28;20076;-78
2022/03/23 10:22:54;;;;;;;26.65;21.55;;;27.60;53.70;;;;;;5074149;28;20496;-79
2022/03/23 10:25:26;;;;;;;27.40;21.23;;;27.70;53.50;;;;;;5056555;28;20051;-79
2022/03/23 10:27:56;;;;;;;26.45;20.58;;;28.70;54.00;;;;;;5074931;28;20044;-79
2022/03/23 10:30:35;;;;;;;26.10;20.75;;;28.50;52.80;;;;;;5074017;28;20072;-78
2022/03/23 10:33:01;;;;;;;23.50;20.10;;;28.30;48.70;;;;;;5074898;28;20516;-79
2022/03/23 10:35:40;;;;;;;31.15;20.23;;;28.50;50.70;;;;;;5055785;28;20052;-79
2022/03/23 10:38:14;;;;;;;24.60;19.55;;;28.50;50.00;;;;;;5074341;28;20052;-77
2022/03/23 10:40:41;;;;;;;25.90;20.70;;;28.50;50.90;;;;;;5074802;28;20041;-79
2022/03/23 10:43:08;;;;;;;26.23;20.70;;;28.60;49.90;;;;;;5073775;28;20044;-79
2022/03/23 10:45:34;;;;;;;26.45;20.63;;;28.90;50.40;;;;;;5074475;28;20051;-79
2022/03/23 10:48:11;;;;;;;27.60;21.00;;;28.70;49.40;;;;;;5056474;28;20399;-80
2022/03/23 10:50:37;;;;;;;25.83;19.60;;;29.10;48.10;;;;;;5074046;28;20131;-78
2022/03/23 10:53:05;;;;;;;24.95;19.88;;;29.00;49.40;;;;;;5056413;28;20513;-78
2022/03/23 10:55:47;;;;;;;24.77;19.52;;;29.00;49.10;;;;;;5056410;28;20131;-78
2022/03/23 10:58:22;;;;;;;27.77;21.65;;;29.80;48.90;;;;;;5073278;28;20127;-78
2022/03/23 11:01:02;;;;;;;25.90;20.15;;;29.20;48.10;;;;;;5074294;28;20052;-78
2022/03/23 11:03:48;;;;;;;24.02;18.05;;;28.90;46.50;;;;;;5055674;28;20051;-78
2022/03/23 11:06:16;;;;;;;21.90;17.20;;;29.20;44.60;;;;;;5074269;28;20236;-78
2022/03/23 11:08:45;;;;;;;23.02;16.98;;;29.00;45.10;;;;;;5055964;28;20048;-78
2022/03/23 11:16:29;;;;;;;23.33;18.55;;;29.40;42.00;;;;;;5055601;28;19920;-78
2022/03/23 11:19:05;;;;;;;25.90;17.02;;;30.20;42.70;;;;;;5073229;28;20048;-78
2022/03/23 11:21:31;;;;;;;23.75;17.45;;;29.60;41.50;;;;;;5055638;28;20056;-79
2022/03/23 11:23:56;;;;;;;22.48;15.70;;;30.10;41.10;;;;;;5055758;28;20041;-77
2022/03/23 11:26:23;;;;;;;22.27;14.98;;;29.60;42.20;;;;;;5055012;28;20106;-78
2022/03/23 11:28:52;;;;;;;21.35;14.80;;;29.10;40.70;;;;;;5055771;28;20040;-78
2022/03/23 11:31:18;;;;;;;21.73;16.15;;;29.40;40.90;;;;;;5073452;28;20044;-78
2022/03/23 11:33:52;;;;;;;18.25;13.77;;;29.70;40.80;;;;;;5072975;28;20047;-79
2022/03/23 11:36:19;;;;;;;17.48;14.07;;;29.00;39.20;;;;;;5073159;28;20048;-79
2022/03/23 11:38:48;;;;;;;19.88;14.48;;;29.40;40.30;;;;;;5054883;28;20044;-79
2022/03/23 11:41:26;;;;;;;22.13;14.70;;;29.50;40.00;;;;;;5150492;27;1240581;-79
2022/03/23 11:43:52;;;;;;;19.98;15.20;;;29.60;40.20;;;;;;5153906;27;20054;-79
2022/03/23 11:46:25;;;;;;;20.73;16.08;;;29.60;40.50;;;;;;5152693;27;20046;-79
2022/03/23 11:49:24;;;;;;;21.80;15.88;;;29.90;39.20;;;;;;5153403;27;20125;-78
2022/03/23 11:52:03;;;;;;;21.52;15.07;;;30.30;38.20;;;;;;5172447;27;20431;-78
2022/03/23 11:55:36;;;;;;;21.20;15.20;;;29.80;39.00;;;;;;5171779;27;20030;-76
2022/03/23 11:57:17;;;;;;;22.38;14.50;;;29.60;40.50;;;;;;5172156;27;20107;-76
2022/03/23 11:59:45;;;;;;;20.95;15.20;;;29.40;40.10;;;;;;5153284;27;20038;-75
2022/03/23 12:02:10;;;;;;;24.40;15.68;;;28.90;39.80;;;;;;5152820;27;20043;-75
2022/03/23 12:04:36;;;;;;;20.85;14.52;;;28.70;39.40;;;;;;5172179;27;20083;-75
2022/03/23 12:07:04;;;;;;;21.60;15.48;;;29.80;39.10;;;;;;5171506;27;20038;-75
2022/03/23 12:09:41;;;;;;;19.67;14.73;;;29.80;38.80;;;;;;5171913;27;20121;-76
2022/03/23 12:12:26;;;;;;;20.50;14.95;;;29.80;38.90;;;;;;5171640;27;20125;-74
2022/03/23 12:15:11;;;;;;;20.83;14.90;;;29.40;40.00;;;;;;5171696;27;20079;-75
2022/03/23 12:17:37;;;;;;;22.38;15.35;;;29.90;39.70;;;;;;5171574;27;20042;-75
2022/03/23 12:20:10;;;;;;;21.58;15.65;;;30.50;40.10;;;;;;5152812;27;20087;-75
2022/03/23 12:22:54;;;;;;;20.52;15.57;;;29.70;38.30;;;;;;5152557;27;20091;-75
2022/03/23 12:25:33;;;;;;;22.92;16.40;;;29.80;39.50;;;;;;5171417;27;20034;-75
2022/03/23 12:28:18;;;;;;;22.38;15.65;;;29.80;40.50;;;;;;5171180;27;20043;-75
2022/03/23 12:31:07;;;;;;;22.15;14.85;;;29.70;39.30;;;;;;5171379;27;20042;-74
2022/03/23 12:34:11;;;;;;;20.52;15.90;;;29.80;39.50;;;;;;5171402;27;20034;-76
2022/03/23 12:39:33;;;;;;;22.58;15.70;;;29.30;39.30;;;;;;5170718;27;20042;-81
2022/03/23 12:42:16;;;;;;;18.00;14.68;;;28.70;38.50;;;;;;5152038;27;20078;-79
2022/03/23 12:45:03;;;;;;;19.27;15.20;;;28.60;38.90;;;;;;5171237;27;20489;-80
2022/03/23 12:47:30;;;;;;;19.42;14.85;;;28.90;40.40;;;;;;5152744;27;20085;-80
2022/03/23 12:58:33;;;;;;;19.27;14.77;;;28.80;41.50;;;;;;5138258;27;20047;-79
2022/03/23 13:01:31;;;;;;;21.58;15.90;;;28.60;40.20;;;;;;5156856;27;20057;-79
2022/03/23 13:03:56;;;;;;;20.13;15.25;;;28.30;41.30;;;;;;5117767;27;20490;-79
2022/03/23 13:06:37;;;;;;;20.90;15.73;;;28.00;41.20;;;;;;5156647;27;20050;-79
2022/03/23 13:09:09;;;;;;;23.50;16.50;;;27.60;40.70;;;;;;5156682;27;20553;-80
2022/03/23 13:11:35;;;;;;;23.08;17.77;;;27.30;41.50;;;;;;5156772;27;20035;-79
2022/03/23 13:14:02;;;;;;;23.33;17.17;;;26.80;42.00;;;;;;5139326;27;20046;-78
2022/03/23 13:16:29;;;;;;;21.45;16.48;;;26.40;42.10;;;;;;5138552;27;20047;-81
2022/03/23 13:18:59;;;;;;;24.02;17.42;;;26.00;41.80;;;;;;5152245;27;20463;-80
2022/03/23 13:21:31;;;;;;;23.25;18.42;;;25.80;43.50;;;;;;5125220;27;20126;-78
2022/03/23 13:24:01;;;;;;;21.92;17.35;;;25.50;43.80;;;;;;5117494;27;20039;-78
2022/03/23 13:26:28;;;;;;;22.55;17.20;;;25.70;43.80;;;;;;5135449;27;20495;-79
2022/03/23 13:28:59;;;;;;;24.45;16.83;;;24.70;43.30;;;;;;5135757;27;20043;-81
2022/03/23 13:31:31;;;;;;;20.23;15.88;;;24.50;44.20;;;;;;5134727;27;20075;-79